sensor_id;sensor_type;location;lat;lon;timestamp;pressure;altitude;pressure_sealevel;temperature;humidity
47742;BME280;33504;52.066;6.096;2023-02-18T00:00:31;102110.86;;;12.11;52.11
47742;BME280;33504;52.066;6.096;2023-02-18T00:02:58;102111.76;;;12.51;51.86
47742;BME280;33504;52.066;6.096;2023-02-18T00:05:25;102107.99;;;12.47;51.68
47742;BME280;33504;52.066;6.096;2023-02-18T00:07:55;102097.81;;;12.15;51.81
47742;BME280;33504;52.066;6.096;2023-02-18T00:10:22;102099.21;;;12.00;52.20
47742;BME280;33504;52.066;6.096;2023-02-18T00:12:49;102101.97;;;12.43;51.95
47742;BME280;33504;52.066;6.096;2023-02-18T00:15:16;102094.70;;;12.28;51.96
47742;BME280;33504;52.066;6.096;2023-02-18T00:17:43;102092.11;;;12.29;52.38
47742;BME280;33504;52.066;6.096;2023-02-18T00:20:11;102087.11;;;12.70;52.04
47742;BME280;33504;52.066;6.096;2023-02-18T00:22:39;102079.58;;;12.32;51.97
47742;BME280;33504;52.066;6.096;2023-02-18T00:25:07;102082.61;;;12.38;51.86
47742;BME280;33504;52.066;6.096;2023-02-18T00:27:34;102082.60;;;12.18;52.16
47742;BME280;33504;52.066;6.096;2023-02-18T00:30:01;102078.48;;;12.19;52.25
47742;BME280;33504;52.066;6.096;2023-02-18T00:32:29;102085.54;;;12.09;52.48
47742;BME280;33504;52.066;6.096;2023-02-18T00:34:56;102087.55;;;12.07;52.88
47742;BME280;33504;52.066;6.096;2023-02-18T00:37:23;102082.44;;;12.15;52.45
47742;BME280;33504;52.066;6.096;2023-02-18T00:39:50;102083.67;;;12.19;52.38
47742;BME280;33504;52.066;6.096;2023-02-18T00:42:17;102078.50;;;12.50;52.22
47742;BME280;33504;52.066;6.096;2023-02-18T00:44:44;102074.98;;;12.37;52.09
47742;BME280;33504;52.066;6.096;2023-02-18T00:47:11;102074.86;;;12.28;52.20
47742;BME280;33504;52.066;6.096;2023-02-18T00:49:38;102072.71;;;12.49;52.30
47742;BME280;33504;52.066;6.096;2023-02-18T00:52:05;102061.48;;;12.39;52.41
47742;BME280;33504;52.066;6.096;2023-02-18T00:54:32;102061.30;;;12.28;52.68
47742;BME280;33504;52.066;6.096;2023-02-18T00:56:59;102059.20;;;11.76;53.16
47742;BME280;33504;52.066;6.096;2023-02-18T00:59:26;102058.53;;;11.86;52.87
47742;BME280;33504;52.066;6.096;2023-02-18T01:01:53;102054.81;;;11.97;53.23
47742;BME280;33504;52.066;6.096;2023-02-18T01:04:21;102052.48;;;12.00;52.80
47742;BME280;33504;52.066;6.096;2023-02-18T01:06:48;102052.64;;;12.17;52.53
47742;BME280;33504;52.066;6.096;2023-02-18T01:09:16;102055.27;;;12.18;52.80
47742;BME280;33504;52.066;6.096;2023-02-18T01:11:43;102049.08;;;12.34;52.67
47742;BME280;33504;52.066;6.096;2023-02-18T01:14:11;102059.46;;;12.08;52.60
47742;BME280;33504;52.066;6.096;2023-02-18T01:16:38;102053.41;;;12.31;52.62
47742;BME280;33504;52.066;6.096;2023-02-18T01:19:06;102054.73;;;12.18;52.90
47742;BME280;33504;52.066;6.096;2023-02-18T01:21:33;102049.65;;;12.13;53.07
47742;BME280;33504;52.066;6.096;2023-02-18T01:24:01;102046.87;;;12.09;53.04
47742;BME280;33504;52.066;6.096;2023-02-18T01:26:28;102045.11;;;12.10;53.10
47742;BME280;33504;52.066;6.096;2023-02-18T01:28:55;102051.29;;;12.14;52.99
47742;BME280;33504;52.066;6.096;2023-02-18T01:31:22;102043.32;;;11.31;54.24
47742;BME280;33504;52.066;6.096;2023-02-18T01:33:50;102046.70;;;11.82;53.74
47742;BME280;33504;52.066;6.096;2023-02-18T01:36:17;102039.78;;;12.08;53.23
47742;BME280;33504;52.066;6.096;2023-02-18T01:38:44;102046.28;;;12.13;53.52
47742;BME280;33504;52.066;6.096;2023-02-18T01:41:11;102045.81;;;12.13;53.09
47742;BME280;33504;52.066;6.096;2023-02-18T01:43:39;102036.60;;;12.16;53.02
47742;BME280;33504;52.066;6.096;2023-02-18T01:46:12;102030.94;;;11.85;53.24
47742;BME280;33504;52.066;6.096;2023-02-18T01:48:42;102022.93;;;11.90;53.06
47742;BME280;33504;52.066;6.096;2023-02-18T01:51:14;102019.91;;;12.13;53.09
47742;BME280;33504;52.066;6.096;2023-02-18T01:53:47;102016.73;;;12.01;53.22
47742;BME280;33504;52.066;6.096;2023-02-18T01:56:21;102010.06;;;12.09;53.35
47742;BME280;33504;52.066;6.096;2023-02-18T01:58:48;102013.18;;;11.53;53.77
47742;BME280;33504;52.066;6.096;2023-02-18T02:01:17;102017.10;;;11.73;53.94
47742;BME280;33504;52.066;6.096;2023-02-18T02:03:44;102023.57;;;11.45;54.04
47742;BME280;33504;52.066;6.096;2023-02-18T02:06:17;102011.13;;;11.77;53.76
47742;BME280;33504;52.066;6.096;2023-02-18T02:08:46;102003.47;;;11.38;54.02
47742;BME280;33504;52.066;6.096;2023-02-18T02:11:22;101991.54;;;11.84;53.70
47742;BME280;33504;52.066;6.096;2023-02-18T02:14:05;101992.50;;;11.84;53.65
47742;BME280;33504;52.066;6.096;2023-02-18T02:16:41;101983.32;;;11.46;54.27
47742;BME280;33504;52.066;6.096;2023-02-18T02:21:52;101988.04;;;12.33;54.58
47742;BME280;33504;52.066;6.096;2023-02-18T02:24:44;101979.42;;;11.16;54.78
47742;BME280;33504;52.066;6.096;2023-02-18T02:27:23;101961.13;;;11.82;53.90
47742;BME280;33504;52.066;6.096;2023-02-18T02:30:00;101956.01;;;11.55;54.02
47742;BME280;33504;52.066;6.096;2023-02-18T02:34:54;101948.76;;;12.55;53.80
47742;BME280;33504;52.066;6.096;2023-02-18T02:37:29;101942.91;;;11.78;54.23
47742;BME280;33504;52.066;6.096;2023-02-18T02:40:10;101934.06;;;11.42;54.05
47742;BME280;33504;52.066;6.096;2023-02-18T02:42:48;101933.66;;;11.85;54.14
47742;BME280;33504;52.066;6.096;2023-02-18T02:45:23;101924.02;;;12.14;53.77
47742;BME280;33504;52.066;6.096;2023-02-18T02:47:58;101919.62;;;12.10;53.82
47742;BME280;33504;52.066;6.096;2023-02-18T02:50:36;101914.65;;;11.61;54.46
47742;BME280;33504;52.066;6.096;2023-02-18T02:53:13;101913.14;;;12.03;53.70
47742;BME280;33504;52.066;6.096;2023-02-18T02:55:42;101903.43;;;11.74;53.86
47742;BME280;33504;52.066;6.096;2023-02-18T02:58:13;101892.38;;;12.31;53.67
47742;BME280;33504;52.066;6.096;2023-02-18T03:00:55;101889.02;;;11.85;54.17
47742;BME280;33504;52.066;6.096;2023-02-18T03:03:54;101882.70;;;12.06;54.27
47742;BME280;33504;52.066;6.096;2023-02-18T03:06:42;101870.24;;;12.03;54.38
47742;BME280;33504;52.066;6.096;2023-02-18T03:09:16;101864.87;;;12.02;53.97
47742;BME280;33504;52.066;6.096;2023-02-18T03:11:55;101851.77;;;12.02;53.69
47742;BME280;33504;52.066;6.096;2023-02-18T03:14:28;101849.55;;;12.14;53.99
47742;BME280;33504;52.066;6.096;2023-02-18T03:17:00;101846.64;;;12.22;53.78
47742;BME280;33504;52.066;6.096;2023-02-18T03:19:32;101843.02;;;12.11;54.12
47742;BME280;33504;52.066;6.096;2023-02-18T03:22:05;101839.35;;;12.34;53.77
47742;BME280;33504;52.066;6.096;2023-02-18T03:24:37;101838.14;;;12.13;53.81
47742;BME280;33504;52.066;6.096;2023-02-18T03:27:10;101830.12;;;12.21;53.77
47742;BME280;33504;52.066;6.096;2023-02-18T03:29:41;101833.77;;;12.38;54.46
47742;BME280;33504;52.066;6.096;2023-02-18T03:32:12;101824.94;;;12.18;54.00
47742;BME280;33504;52.066;6.096;2023-02-18T03:34:44;101826.63;;;12.21;54.41
47742;BME280;33504;52.066;6.096;2023-02-18T03:37:14;101821.75;;;12.04;54.94
47742;BME280;33504;52.066;6.096;2023-02-18T03:39:45;101822.27;;;12.00;55.10
47742;BME280;33504;52.066;6.096;2023-02-18T03:42:15;101812.26;;;11.95;54.93
47742;BME280;33504;52.066;6.096;2023-02-18T03:44:42;101803.73;;;12.40;54.88
47742;BME280;33504;52.066;6.096;2023-02-18T03:47:09;101801.39;;;11.92;55.56
47742;BME280;33504;52.066;6.096;2023-02-18T03:49:37;101797.23;;;12.19;55.12
47742;BME280;33504;52.066;6.096;2023-02-18T03:52:04;101794.00;;;12.13;54.74
47742;BME280;33504;52.066;6.096;2023-02-18T03:54:31;101783.98;;;12.04;55.39
47742;BME280;33504;52.066;6.096;2023-02-18T03:56:58;101777.78;;;12.34;54.92
47742;BME280;33504;52.066;6.096;2023-02-18T03:59:25;101771.20;;;11.57;56.12
47742;BME280;33504;52.066;6.096;2023-02-18T04:01:53;101773.38;;;11.97;55.80
47742;BME280;33504;52.066;6.096;2023-02-18T04:04:20;101769.98;;;12.14;55.49
47742;BME280;33504;52.066;6.096;2023-02-18T04:06:47;101764.46;;;12.09;55.63
47742;BME280;33504;52.066;6.096;2023-02-18T04:09:14;101754.98;;;11.97;55.90
47742;BME280;33504;52.066;6.096;2023-02-18T04:11:41;101748.88;;;12.45;55.10
47742;BME280;33504;52.066;6.096;2023-02-18T04:14:08;101752.08;;;12.53;55.28
47742;BME280;33504;52.066;6.096;2023-02-18T04:16:36;101746.19;;;12.06;55.91
47742;BME280;33504;52.066;6.096;2023-02-18T04:19:03;101743.83;;;12.01;55.79
47742;BME280;33504;52.066;6.096;2023-02-18T04:21:30;101742.25;;;12.01;56.08
47742;BME280;33504;52.066;6.096;2023-02-18T04:23:58;101738.06;;;11.60;56.88
47742;BME280;33504;52.066;6.096;2023-02-18T04:26:25;101738.08;;;12.24;56.21
47742;BME280;33504;52.066;6.096;2023-02-18T04:28:53;101738.67;;;11.87;56.16
47742;BME280;33504;52.066;6.096;2023-02-18T04:31:20;101737.06;;;11.67;56.56
47742;BME280;33504;52.066;6.096;2023-02-18T04:33:47;101735.79;;;11.96;56.58
47742;BME280;33504;52.066;6.096;2023-02-18T04:36:14;101731.33;;;12.10;55.84
47742;BME280;33504;52.066;6.096;2023-02-18T04:38:42;101728.36;;;12.14;56.12
47742;BME280;33504;52.066;6.096;2023-02-18T04:41:09;101722.22;;;12.19;55.70
47742;BME280;33504;52.066;6.096;2023-02-18T04:43:35;101717.38;;;12.36;55.90
47742;BME280;33504;52.066;6.096;2023-02-18T04:46:03;101722.69;;;11.80;56.37
47742;BME280;33504;52.066;6.096;2023-02-18T04:48:30;101716.29;;;12.29;56.49
47742;BME280;33504;52.066;6.096;2023-02-18T04:50:57;101707.38;;;12.03;56.11
47742;BME280;33504;52.066;6.096;2023-02-18T04:53:24;101699.44;;;12.22;56.18
47742;BME280;33504;52.066;6.096;2023-02-18T04:55:53;101708.86;;;11.85;56.54
47742;BME280;33504;52.066;6.096;2023-02-18T04:58:20;101703.28;;;11.91;56.86
47742;BME280;33504;52.066;6.096;2023-02-18T05:00:48;101698.92;;;12.14;56.42
47742;BME280;33504;52.066;6.096;2023-02-18T05:03:15;101691.59;;;12.09;56.57
47742;BME280;33504;52.066;6.096;2023-02-18T05:05:42;101682.24;;;11.98;56.64
47742;BME280;33504;52.066;6.096;2023-02-18T05:08:10;101677.90;;;11.92;56.46
47742;BME280;33504;52.066;6.096;2023-02-18T05:10:38;101672.15;;;11.89;56.63
47742;BME280;33504;52.066;6.096;2023-02-18T05:13:05;101673.55;;;11.90;56.83
47742;BME280;33504;52.066;6.096;2023-02-18T05:15:32;101662.26;;;11.89;56.78
47742;BME280;33504;52.066;6.096;2023-02-18T05:17:59;101658.64;;;11.84;56.71
47742;BME280;33504;52.066;6.096;2023-02-18T05:20:27;101667.61;;;12.06;56.76
47742;BME280;33504;52.066;6.096;2023-02-18T05:22:54;101672.09;;;12.17;56.15
47742;BME280;33504;52.066;6.096;2023-02-18T05:25:22;101667.10;;;12.28;55.91
47742;BME280;33504;52.066;6.096;2023-02-18T05:27:49;101668.26;;;11.78;56.44
47742;BME280;33504;52.066;6.096;2023-02-18T05:30:16;101660.24;;;11.98;56.53
47742;BME280;33504;52.066;6.096;2023-02-18T05:32:44;101649.38;;;12.19;56.14
47742;BME280;33504;52.066;6.096;2023-02-18T05:35:11;101649.45;;;11.47;57.37
47742;BME280;33504;52.066;6.096;2023-02-18T05:37:37;101643.84;;;11.70;57.14
47742;BME280;33504;52.066;6.096;2023-02-18T05:40:06;101638.83;;;11.56;57.36
47742;BME280;33504;52.066;6.096;2023-02-18T05:42:33;101630.24;;;12.16;56.66
47742;BME280;33504;52.066;6.096;2023-02-18T05:44:59;101636.64;;;12.29;56.44
47742;BME280;33504;52.066;6.096;2023-02-18T05:47:27;101631.83;;;11.58;57.93
47742;BME280;33504;52.066;6.096;2023-02-18T05:49:54;101625.04;;;11.76;57.56
47742;BME280;33504;52.066;6.096;2023-02-18T05:52:21;101624.00;;;11.66;57.64
47742;BME280;33504;52.066;6.096;2023-02-18T05:54:49;101622.47;;;11.59;57.42
47742;BME280;33504;52.066;6.096;2023-02-18T05:57:16;101628.46;;;11.64;57.24
47742;BME280;33504;52.066;6.096;2023-02-18T05:59:44;101628.06;;;11.54;57.01
47742;BME280;33504;52.066;6.096;2023-02-18T06:02:13;101619.65;;;11.67;56.99
47742;BME280;33504;52.066;6.096;2023-02-18T06:04:40;101624.46;;;11.92;56.97
47742;BME280;33504;52.066;6.096;2023-02-18T06:07:07;101622.01;;;11.55;57.70
47742;BME280;33504;52.066;6.096;2023-02-18T06:09:35;101619.65;;;11.58;57.25
47742;BME280;33504;52.066;6.096;2023-02-18T06:12:03;101624.66;;;11.88;56.76
47742;BME280;33504;52.066;6.096;2023-02-18T06:14:30;101625.09;;;12.01;56.27
47742;BME280;33504;52.066;6.096;2023-02-18T06:16:58;101613.25;;;11.84;57.05
47742;BME280;33504;52.066;6.096;2023-02-18T06:19:24;101613.76;;;11.67;56.76
47742;BME280;33504;52.066;6.096;2023-02-18T06:21:51;101619.97;;;11.61;57.06
47742;BME280;33504;52.066;6.096;2023-02-18T06:24:19;101631.23;;;11.89;56.52
47742;BME280;33504;52.066;6.096;2023-02-18T06:26:46;101621.75;;;11.84;56.54
47742;BME280;33504;52.066;6.096;2023-02-18T06:29:14;101626.15;;;11.46;56.53
47742;BME280;33504;52.066;6.096;2023-02-18T06:31:40;101625.29;;;11.40;57.24
47742;BME280;33504;52.066;6.096;2023-02-18T06:34:08;101633.38;;;10.73;58.69
47742;BME280;33504;52.066;6.096;2023-02-18T06:36:35;101626.81;;;11.21;57.87
47742;BME280;33504;52.066;6.096;2023-02-18T06:39:03;101632.16;;;11.13;57.44
47742;BME280;33504;52.066;6.096;2023-02-18T06:41:31;101623.80;;;11.30;57.60
47742;BME280;33504;52.066;6.096;2023-02-18T06:43:58;101633.68;;;11.31;57.40
47742;BME280;33504;52.066;6.096;2023-02-18T06:46:25;101635.60;;;11.30;57.39
47742;BME280;33504;52.066;6.096;2023-02-18T06:48:52;101628.64;;;11.03;57.97
47742;BME280;33504;52.066;6.096;2023-02-18T06:51:20;101632.92;;;11.03;57.98
47742;BME280;33504;52.066;6.096;2023-02-18T06:53:47;101637.24;;;10.83;58.30
47742;BME280;33504;52.066;6.096;2023-02-18T06:56:15;101632.54;;;11.09;57.82
47742;BME280;33504;52.066;6.096;2023-02-18T06:58:42;101643.39;;;11.31;57.57
47742;BME280;33504;52.066;6.096;2023-02-18T07:01:09;101649.65;;;11.18;57.54
47742;BME280;33504;52.066;6.096;2023-02-18T07:03:36;101647.59;;;11.07;57.81
47742;BME280;33504;52.066;6.096;2023-02-18T07:06:03;101650.53;;;11.21;57.42
47742;BME280;33504;52.066;6.096;2023-02-18T07:08:31;101643.20;;;11.34;57.36
47742;BME280;33504;52.066;6.096;2023-02-18T07:10:58;101640.87;;;11.17;57.61
47742;BME280;33504;52.066;6.096;2023-02-18T07:13:25;101634.27;;;11.51;57.41
47742;BME280;33504;52.066;6.096;2023-02-18T07:15:53;101632.89;;;11.03;57.51
47742;BME280;33504;52.066;6.096;2023-02-18T07:18:20;101623.02;;;11.35;57.22
47742;BME280;33504;52.066;6.096;2023-02-18T07:20:46;101632.84;;;10.98;57.67
47742;BME280;33504;52.066;6.096;2023-02-18T07:23:13;101629.30;;;10.91;57.97
47742;BME280;33504;52.066;6.096;2023-02-18T07:25:40;101625.37;;;10.98;57.88
47742;BME280;33504;52.066;6.096;2023-02-18T07:28:07;101631.91;;;11.02;57.63
47742;BME280;33504;52.066;6.096;2023-02-18T07:30:35;101628.66;;;10.93;57.86
47742;BME280;33504;52.066;6.096;2023-02-18T07:33:02;101635.08;;;10.73;58.10
47742;BME280;33504;52.066;6.096;2023-02-18T07:35:30;101628.13;;;11.23;57.24
47742;BME280;33504;52.066;6.096;2023-02-18T07:37:57;101638.54;;;11.00;57.71
47742;BME280;33504;52.066;6.096;2023-02-18T07:40:24;101625.91;;;11.39;56.87
47742;BME280;33504;52.066;6.096;2023-02-18T07:42:51;101623.03;;;10.49;58.47
47742;BME280;33504;52.066;6.096;2023-02-18T07:45:18;101618.20;;;10.83;58.43
47742;BME280;33504;52.066;6.096;2023-02-18T07:47:44;101612.53;;;10.68;57.85
47742;BME280;33504;52.066;6.096;2023-02-18T07:50:12;101608.81;;;10.74;57.72
47742;BME280;33504;52.066;6.096;2023-02-18T07:52:38;101610.11;;;10.71;57.89
47742;BME280;33504;52.066;6.096;2023-02-18T07:55:07;101597.56;;;11.30;57.63
47742;BME280;33504;52.066;6.096;2023-02-18T07:57:34;101598.88;;;10.83;57.49
47742;BME280;33504;52.066;6.096;2023-02-18T08:00:02;101599.12;;;10.91;57.18
47742;BME280;33504;52.066;6.096;2023-02-18T08:02:29;101596.89;;;11.02;57.33
47742;BME280;33504;52.066;6.096;2023-02-18T08:04:56;101586.18;;;10.75;57.50
47742;BME280;33504;52.066;6.096;2023-02-18T08:07:23;101593.71;;;10.90;57.42
47742;BME280;33504;52.066;6.096;2023-02-18T08:09:50;101594.63;;;11.13;56.81
47742;BME280;33504;52.066;6.096;2023-02-18T08:12:17;101611.33;;;11.06;57.37
47742;BME280;33504;52.066;6.096;2023-02-18T08:14:45;101608.66;;;11.28;56.97
47742;BME280;33504;52.066;6.096;2023-02-18T08:17:12;101623.60;;;10.73;57.30
47742;BME280;33504;52.066;6.096;2023-02-18T08:19:39;101632.14;;;11.15;56.51
47742;BME280;33504;52.066;6.096;2023-02-18T08:22:06;101630.18;;;10.46;57.39
47742;BME280;33504;52.066;6.096;2023-02-18T08:24:34;101611.28;;;10.28;57.82
47742;BME280;33504;52.066;6.096;2023-02-18T08:27:01;101628.70;;;10.71;57.10
47742;BME280;33504;52.066;6.096;2023-02-18T08:29:29;101625.83;;;10.78;56.63
47742;BME280;33504;52.066;6.096;2023-02-18T08:31:55;101619.33;;;10.69;56.62
47742;BME280;33504;52.066;6.096;2023-02-18T08:34:22;101623.21;;;10.89;56.09
47742;BME280;33504;52.066;6.096;2023-02-18T08:36:50;101627.07;;;11.10;55.69
47742;BME280;33504;52.066;6.096;2023-02-18T08:39:16;101619.70;;;10.66;57.03
47742;BME280;33504;52.066;6.096;2023-02-18T08:41:44;101623.04;;;10.45;56.95
47742;BME280;33504;52.066;6.096;2023-02-18T08:44:11;101621.33;;;10.18;57.04
47742;BME280;33504;52.066;6.096;2023-02-18T08:46:38;101611.53;;;10.30;57.10
47742;BME280;33504;52.066;6.096;2023-02-18T08:49:05;101624.79;;;10.58;56.65
47742;BME280;33504;52.066;6.096;2023-02-18T08:51:32;101635.18;;;10.52;56.29
47742;BME280;33504;52.066;6.096;2023-02-18T08:54:00;101626.67;;;10.97;56.37
47742;BME280;33504;52.066;6.096;2023-02-18T08:56:28;101634.36;;;10.88;56.14
47742;BME280;33504;52.066;6.096;2023-02-18T08:58:55;101635.11;;;10.62;56.18
47742;BME280;33504;52.066;6.096;2023-02-18T09:01:22;101632.64;;;10.89;55.76
47742;BME280;33504;52.066;6.096;2023-02-18T09:03:49;101626.88;;;10.70;55.79
47742;BME280;33504;52.066;6.096;2023-02-18T09:06:16;101636.21;;;10.73;55.46
47742;BME280;33504;52.066;6.096;2023-02-18T09:08:43;101628.95;;;10.81;56.03
47742;BME280;33504;52.066;6.096;2023-02-18T09:11:11;101626.37;;;11.12;55.71
47742;BME280;33504;52.066;6.096;2023-02-18T09:13:38;101639.69;;;10.24;56.94
47742;BME280;33504;52.066;6.096;2023-02-18T09:16:07;101651.63;;;10.33;56.80
47742;BME280;33504;52.066;6.096;2023-02-18T09:18:35;101644.16;;;10.70;56.14
47742;BME280;33504;52.066;6.096;2023-02-18T09:21:03;101651.06;;;10.74;56.05
47742;BME280;33504;52.066;6.096;2023-02-18T09:23:31;101641.98;;;10.13;56.89
47742;BME280;33504;52.066;6.096;2023-02-18T09:25:59;101647.77;;;10.85;56.46
47742;BME280;33504;52.066;6.096;2023-02-18T09:28:30;101656.54;;;10.27;57.31
47742;BME280;33504;52.066;6.096;2023-02-18T09:30:58;101654.70;;;10.42;57.13
47742;BME280;33504;52.066;6.096;2023-02-18T09:33:29;101652.77;;;10.57;56.57
47742;BME280;33504;52.066;6.096;2023-02-18T09:35:56;101642.55;;;10.51;56.47
47742;BME280;33504;52.066;6.096;2023-02-18T09:38:22;101649.12;;;10.64;56.50
47742;BME280;33504;52.066;6.096;2023-02-18T09:40:53;101644.59;;;9.95;56.89
47742;BME280;33504;52.066;6.096;2023-02-18T09:43:26;101648.39;;;10.23;56.23
47742;BME280;33504;52.066;6.096;2023-02-18T09:45:55;101654.44;;;10.69;56.52
47742;BME280;33504;52.066;6.096;2023-02-18T09:48:26;101654.49;;;10.05;57.14
47742;BME280;33504;52.066;6.096;2023-02-18T09:50:54;101666.22;;;10.49;56.75
47742;BME280;33504;52.066;6.096;2023-02-18T09:53:23;101665.96;;;10.34;56.42
47742;BME280;33504;52.066;6.096;2023-02-18T09:55:53;101667.74;;;10.05;57.11
47742;BME280;33504;52.066;6.096;2023-02-18T09:58:23;101662.03;;;10.13;57.12
47742;BME280;33504;52.066;6.096;2023-02-18T10:01:01;101659.49;;;10.23;56.98
47742;BME280;33504;52.066;6.096;2023-02-18T10:03:29;101663.93;;;10.13;57.17
47742;BME280;33504;52.066;6.096;2023-02-18T10:05:59;101657.16;;;10.08;57.00
47742;BME280;33504;52.066;6.096;2023-02-18T10:08:29;101660.95;;;10.09;57.20
47742;BME280;33504;52.066;6.096;2023-02-18T10:10:58;101679.80;;;10.27;56.98
47742;BME280;33504;52.066;6.096;2023-02-18T10:13:30;101689.65;;;9.83;57.22
47742;BME280;33504;52.066;6.096;2023-02-18T10:15:58;101689.40;;;10.15;57.02
47742;BME280;33504;52.066;6.096;2023-02-18T10:18:27;101684.30;;;10.32;57.32
47742;BME280;33504;52.066;6.096;2023-02-18T10:21:05;101685.17;;;10.14;57.00
47742;BME280;33504;52.066;6.096;2023-02-18T10:23:35;101678.74;;;10.58;56.83
47742;BME280;33504;52.066;6.096;2023-02-18T10:26:06;101676.66;;;10.65;57.02
47742;BME280;33504;52.066;6.096;2023-02-18T10:28:35;101681.47;;;10.36;57.81
47742;BME280;33504;52.066;6.096;2023-02-18T10:31:07;101685.07;;;10.40;57.67
47742;BME280;33504;52.066;6.096;2023-02-18T10:33:41;101685.52;;;10.67;57.22
47742;BME280;33504;52.066;6.096;2023-02-18T10:36:22;101696.97;;;10.71;57.11
47742;BME280;33504;52.066;6.096;2023-02-18T10:39:12;101692.01;;;10.17;57.37
47742;BME280;33504;52.066;6.096;2023-02-18T10:41:47;101689.34;;;10.34;57.58
47742;BME280;33504;52.066;6.096;2023-02-18T10:44:26;101701.43;;;10.40;57.04
47742;BME280;33504;52.066;6.096;2023-02-18T10:47:02;101702.57;;;10.38;56.99
47742;BME280;33504;52.066;6.096;2023-02-18T10:49:45;101701.19;;;10.77;56.50
47742;BME280;33504;52.066;6.096;2023-02-18T10:52:16;101700.40;;;10.67;56.39
47742;BME280;33504;52.066;6.096;2023-02-18T10:54:52;101709.00;;;11.00;55.62
47742;BME280;33504;52.066;6.096;2023-02-18T10:57:22;101699.74;;;10.97;55.88
47742;BME280;33504;52.066;6.096;2023-02-18T10:59:56;101698.96;;;10.76;56.48
47742;BME280;33504;52.066;6.096;2023-02-18T11:02:26;101706.01;;;10.29;56.88
47742;BME280;33504;52.066;6.096;2023-02-18T11:04:53;101714.19;;;10.39;56.78
47742;BME280;33504;52.066;6.096;2023-02-18T11:07:22;101718.54;;;10.89;56.44
47742;BME280;33504;52.066;6.096;2023-02-18T11:09:52;101707.13;;;10.97;56.20
47742;BME280;33504;52.066;6.096;2023-02-18T11:12:22;101697.76;;;10.83;56.35
47742;BME280;33504;52.066;6.096;2023-02-18T11:15:15;101712.37;;;10.83;56.56
47742;BME280;33504;52.066;6.096;2023-02-18T11:17:44;101702.93;;;10.64;56.27
47742;BME280;33504;52.066;6.096;2023-02-18T11:20:30;101703.82;;;11.07;56.27
47742;BME280;33504;52.066;6.096;2023-02-18T11:23:13;101694.45;;;10.99;56.25
47742;BME280;33504;52.066;6.096;2023-02-18T11:25:41;101685.44;;;11.30;56.17
47742;BME280;33504;52.066;6.096;2023-02-18T11:28:28;101694.67;;;11.65;55.05
47742;BME280;33504;52.066;6.096;2023-02-18T11:30:58;101695.40;;;12.14;55.15
47742;BME280;33504;52.066;6.096;2023-02-18T11:33:39;101686.39;;;12.86;53.61
47742;BME280;33504;52.066;6.096;2023-02-18T11:36:16;101686.32;;;13.20;52.59
47742;BME280;33504;52.066;6.096;2023-02-18T11:38:46;101695.77;;;13.16;51.47
47742;BME280;33504;52.066;6.096;2023-02-18T11:41:16;101685.24;;;12.76;51.60
47742;BME280;33504;52.066;6.096;2023-02-18T11:43:47;101690.17;;;13.32;51.38
47742;BME280;33504;52.066;6.096;2023-02-18T11:46:18;101691.89;;;12.98;52.38
47742;BME280;33504;52.066;6.096;2023-02-18T11:48:45;101697.36;;;12.58;52.21
47742;BME280;33504;52.066;6.096;2023-02-18T11:51:20;101687.36;;;12.56;52.27
47742;BME280;33504;52.066;6.096;2023-02-18T11:53:59;101689.02;;;12.04;52.90
47742;BME280;33504;52.066;6.096;2023-02-18T11:56:29;101690.48;;;12.44;52.52
47742;BME280;33504;52.066;6.096;2023-02-18T11:58:57;101694.01;;;11.97;53.28
47742;BME280;33504;52.066;6.096;2023-02-18T12:01:32;101701.88;;;12.04;53.23
47742;BME280;33504;52.066;6.096;2023-02-18T12:04:09;101698.59;;;12.29;52.78
47742;BME280;33504;52.066;6.096;2023-02-18T12:06:44;101697.72;;;12.15;53.07
47742;BME280;33504;52.066;6.096;2023-02-18T12:09:21;101697.22;;;12.30;53.24
47742;BME280;33504;52.066;6.096;2023-02-18T12:11:52;101706.95;;;12.30;52.68
47742;BME280;33504;52.066;6.096;2023-02-18T12:14:21;101699.84;;;11.97;53.71
47742;BME280;33504;52.066;6.096;2023-02-18T12:17:04;101701.90;;;12.22;53.70
47742;BME280;33504;52.066;6.096;2023-02-18T12:19:48;101703.51;;;12.05;53.39
47742;BME280;33504;52.066;6.096;2023-02-18T12:22:20;101705.78;;;12.21;54.13
47742;BME280;33504;52.066;6.096;2023-02-18T12:25:00;101702.28;;;11.91;54.07
47742;BME280;33504;52.066;6.096;2023-02-18T12:27:36;101694.37;;;12.18;54.32
47742;BME280;33504;52.066;6.096;2023-02-18T12:30:24;101709.70;;;11.87;54.52
47742;BME280;33504;52.066;6.096;2023-02-18T12:33:00;101710.02;;;11.67;55.18
47742;BME280;33504;52.066;6.096;2023-02-18T12:35:48;101707.63;;;11.36;55.46
47742;BME280;33504;52.066;6.096;2023-02-18T12:38:43;101705.97;;;11.44;55.72
47742;BME280;33504;52.066;6.096;2023-02-18T12:41:27;101701.18;;;11.68;55.06
47742;BME280;33504;52.066;6.096;2023-02-18T12:44:03;101695.27;;;11.98;54.87
47742;BME280;33504;52.066;6.096;2023-02-18T12:46:51;101692.75;;;11.96;54.98
47742;BME280;33504;52.066;6.096;2023-02-18T12:49:37;101701.61;;;12.10;54.60
47742;BME280;33504;52.066;6.096;2023-02-18T12:52:22;101702.76;;;11.89;54.43
47742;BME280;33504;52.066;6.096;2023-02-18T12:55:22;101698.66;;;11.94;54.07
47742;BME280;33504;52.066;6.096;2023-02-18T12:57:59;101696.40;;;11.97;54.83
47742;BME280;33504;52.066;6.096;2023-02-18T13:00:48;101708.97;;;12.14;53.99
47742;BME280;33504;52.066;6.096;2023-02-18T13:04:11;101708.76;;;13.27;53.51
47742;BME280;33504;52.066;6.096;2023-02-18T13:06:52;101716.07;;;12.34;53.61
47742;BME280;33504;52.066;6.096;2023-02-18T13:09:34;101713.11;;;12.39;53.49
47742;BME280;33504;52.066;6.096;2023-02-18T13:12:11;101713.45;;;12.57;53.51